sensor_id;sensor_type;location;lat;lon;timestamp;P1;durP1;ratioP1;P2;durP2;ratioP2
84113;SDS011;74483;48.846;2.358;2024-01-07T00:01:58;1.25;;;0.60;;
84113;SDS011;74483;48.846;2.358;2024-01-07T00:04:23;0.98;;;0.85;;
84113;SDS011;74483;48.846;2.358;2024-01-07T00:06:49;1.00;;;0.60;;
84113;SDS011;74483;48.846;2.358;2024-01-07T00:09:15;1.02;;;0.80;;
84113;SDS011;74483;48.846;2.358;2024-01-07T00:11:41;0.85;;;0.73;;
84113;SDS011;74483;48.846;2.358;2024-01-07T00:14:07;0.70;;;0.70;;
84113;SDS011;74483;48.846;2.358;2024-01-07T00:16:33;0.77;;;0.70;;
84113;SDS011;74483;48.846;2.358;2024-01-07T00:18:59;1.05;;;0.70;;
84113;SDS011;74483;48.846;2.358;2024-01-07T00:21:25;0.88;;;0.70;;
84113;SDS011;74483;48.846;2.358;2024-01-07T00:23:50;0.95;;;0.80;;
84113;SDS011;74483;48.846;2.358;2024-01-07T00:26:16;0.70;;;0.60;;
84113;SDS011;74483;48.846;2.358;2024-01-07T00:28:41;0.88;;;0.80;;
84113;SDS011;74483;48.846;2.358;2024-01-07T00:31:07;1.25;;;0.70;;
84113;SDS011;74483;48.846;2.358;2024-01-07T00:33:34;1.15;;;0.60;;
84113;SDS011;74483;48.846;2.358;2024-01-07T00:36:00;0.93;;;0.70;;
84113;SDS011;74483;48.846;2.358;2024-01-07T00:38:26;0.63;;;0.63;;
84113;SDS011;74483;48.846;2.358;2024-01-07T00:40:51;0.98;;;0.77;;
84113;SDS011;74483;48.846;2.358;2024-01-07T00:43:17;0.98;;;0.65;;
84113;SDS011;74483;48.846;2.358;2024-01-07T00:45:43;0.77;;;0.50;;
84113;SDS011;74483;48.846;2.358;2024-01-07T00:48:09;0.80;;;0.63;;
84113;SDS011;74483;48.846;2.358;2024-01-07T00:50:34;1.25;;;0.85;;
84113;SDS011;74483;48.846;2.358;2024-01-07T00:53:00;0.98;;;0.60;;
84113;SDS011;74483;48.846;2.358;2024-01-07T00:55:26;0.93;;;0.82;;
84113;SDS011;74483;48.846;2.358;2024-01-07T00:57:51;0.63;;;0.60;;
84113;SDS011;74483;48.846;2.358;2024-01-07T01:00:17;0.80;;;0.60;;
84113;SDS011;74483;48.846;2.358;2024-01-07T01:02:43;0.80;;;0.60;;
84113;SDS011;74483;48.846;2.358;2024-01-07T01:05:09;0.93;;;0.80;;
84113;SDS011;74483;48.846;2.358;2024-01-07T01:07:34;1.08;;;0.80;;
84113;SDS011;74483;48.846;2.358;2024-01-07T01:10:00;0.70;;;0.70;;
84113;SDS011;74483;48.846;2.358;2024-01-07T01:12:25;0.63;;;0.60;;
84113;SDS011;74483;48.846;2.358;2024-01-07T01:14:51;0.85;;;0.70;;
84113;SDS011;74483;48.846;2.358;2024-01-07T01:17:17;0.50;;;0.50;;
84113;SDS011;74483;48.846;2.358;2024-01-07T01:19:42;0.60;;;0.60;;
84113;SDS011;74483;48.846;2.358;2024-01-07T01:22:08;0.98;;;0.57;;
84113;SDS011;74483;48.846;2.358;2024-01-07T01:24:33;0.60;;;0.60;;
84113;SDS011;74483;48.846;2.358;2024-01-07T01:26:59;0.73;;;0.60;;
84113;SDS011;74483;48.846;2.358;2024-01-07T01:29:25;0.85;;;0.60;;
84113;SDS011;74483;48.846;2.358;2024-01-07T01:31:50;1.25;;;0.60;;
84113;SDS011;74483;48.846;2.358;2024-01-07T01:34:16;0.98;;;0.60;;
84113;SDS011;74483;48.846;2.358;2024-01-07T01:36:42;0.73;;;0.60;;
84113;SDS011;74483;48.846;2.358;2024-01-07T01:39:08;1.00;;;0.73;;
84113;SDS011;74483;48.846;2.358;2024-01-07T01:41:33;0.95;;;0.60;;
84113;SDS011;74483;48.846;2.358;2024-01-07T01:43:59;0.77;;;0.60;;
84113;SDS011;74483;48.846;2.358;2024-01-07T01:46:25;0.70;;;0.70;;
84113;SDS011;74483;48.846;2.358;2024-01-07T01:48:52;1.30;;;0.70;;
84113;SDS011;74483;48.846;2.358;2024-01-07T01:51:18;0.85;;;0.52;;
84113;SDS011;74483;48.846;2.358;2024-01-07T01:53:44;0.70;;;0.50;;
84113;SDS011;74483;48.846;2.358;2024-01-07T01:56:10;0.85;;;0.50;;
84113;SDS011;74483;48.846;2.358;2024-01-07T01:58:36;1.02;;;0.60;;
84113;SDS011;74483;48.846;2.358;2024-01-07T02:01:02;0.68;;;0.68;;
84113;SDS011;74483;48.846;2.358;2024-01-07T02:03:29;0.73;;;0.68;;
84113;SDS011;74483;48.846;2.358;2024-01-07T02:05:54;0.50;;;0.50;;
84113;SDS011;74483;48.846;2.358;2024-01-07T02:08:22;0.52;;;0.47;;
84113;SDS011;74483;48.846;2.358;2024-01-07T02:10:48;0.50;;;0.50;;
84113;SDS011;74483;48.846;2.358;2024-01-07T02:13:13;0.88;;;0.60;;
84113;SDS011;74483;48.846;2.358;2024-01-07T02:15:39;0.60;;;0.60;;
84113;SDS011;74483;48.846;2.358;2024-01-07T02:18:05;0.68;;;0.60;;
84113;SDS011;74483;48.846;2.358;2024-01-07T02:20:30;0.70;;;0.60;;
84113;SDS011;74483;48.846;2.358;2024-01-07T02:22:56;0.60;;;0.57;;
84113;SDS011;74483;48.846;2.358;2024-01-07T02:25:23;1.25;;;0.80;;
84113;SDS011;74483;48.846;2.358;2024-01-07T02:27:49;0.50;;;0.50;;
84113;SDS011;74483;48.846;2.358;2024-01-07T02:30:14;0.60;;;0.57;;
84113;SDS011;74483;48.846;2.358;2024-01-07T02:32:40;1.30;;;0.60;;
84113;SDS011;74483;48.846;2.358;2024-01-07T02:35:05;0.52;;;0.50;;
84113;SDS011;74483;48.846;2.358;2024-01-07T02:37:31;0.57;;;0.50;;
84113;SDS011;74483;48.846;2.358;2024-01-07T02:39:58;0.50;;;0.50;;
84113;SDS011;74483;48.846;2.358;2024-01-07T02:42:23;1.00;;;0.60;;
84113;SDS011;74483;48.846;2.358;2024-01-07T02:44:49;0.60;;;0.50;;
84113;SDS011;74483;48.846;2.358;2024-01-07T02:47:14;0.50;;;0.50;;
84113;SDS011;74483;48.846;2.358;2024-01-07T02:49:40;1.00;;;0.60;;
84113;SDS011;74483;48.846;2.358;2024-01-07T02:52:05;0.82;;;0.60;;
84113;SDS011;74483;48.846;2.358;2024-01-07T02:54:31;0.50;;;0.50;;
84113;SDS011;74483;48.846;2.358;2024-01-07T02:56:57;0.93;;;0.60;;
84113;SDS011;74483;48.846;2.358;2024-01-07T02:59:22;1.13;;;0.60;;
84113;SDS011;74483;48.846;2.358;2024-01-07T03:01:48;0.38;;;0.38;;
84113;SDS011;74483;48.846;2.358;2024-01-07T03:04:14;1.10;;;0.50;;
84113;SDS011;74483;48.846;2.358;2024-01-07T03:06:41;1.27;;;0.60;;
84113;SDS011;74483;48.846;2.358;2024-01-07T03:09:06;1.95;;;0.57;;
84113;SDS011;74483;48.846;2.358;2024-01-07T03:11:32;0.60;;;0.50;;
84113;SDS011;74483;48.846;2.358;2024-01-07T03:13:58;0.90;;;0.50;;
84113;SDS011;74483;48.846;2.358;2024-01-07T03:16:24;0.73;;;0.60;;
84113;SDS011;74483;48.846;2.358;2024-01-07T03:18:51;0.73;;;0.60;;
84113;SDS011;74483;48.846;2.358;2024-01-07T03:21:20;0.75;;;0.47;;
84113;SDS011;74483;48.846;2.358;2024-01-07T03:23:47;1.13;;;0.63;;
84113;SDS011;74483;48.846;2.358;2024-01-07T03:26:14;0.70;;;0.60;;
84113;SDS011;74483;48.846;2.358;2024-01-07T03:28:41;0.43;;;0.40;;
84113;SDS011;74483;48.846;2.358;2024-01-07T03:31:13;0.68;;;0.50;;
84113;SDS011;74483;48.846;2.358;2024-01-07T03:33:43;0.52;;;0.47;;
84113;SDS011;74483;48.846;2.358;2024-01-07T03:36:12;0.50;;;0.50;;
84113;SDS011;74483;48.846;2.358;2024-01-07T03:38:39;0.50;;;0.50;;
84113;SDS011;74483;48.846;2.358;2024-01-07T03:41:07;0.43;;;0.43;;
84113;SDS011;74483;48.846;2.358;2024-01-07T03:43:32;1.15;;;0.60;;
84113;SDS011;74483;48.846;2.358;2024-01-07T03:45:58;1.13;;;0.60;;
84113;SDS011;74483;48.846;2.358;2024-01-07T03:48:25;0.55;;;0.50;;
84113;SDS011;74483;48.846;2.358;2024-01-07T03:50:51;1.63;;;0.70;;
84113;SDS011;74483;48.846;2.358;2024-01-07T03:53:17;0.60;;;0.60;;
84113;SDS011;74483;48.846;2.358;2024-01-07T03:55:42;1.08;;;0.50;;
84113;SDS011;74483;48.846;2.358;2024-01-07T03:58:08;0.45;;;0.45;;
84113;SDS011;74483;48.846;2.358;2024-01-07T04:00:34;0.52;;;0.52;;
84113;SDS011;74483;48.846;2.358;2024-01-07T04:03:00;0.60;;;0.60;;
84113;SDS011;74483;48.846;2.358;2024-01-07T04:05:26;0.95;;;0.70;;
84113;SDS011;74483;48.846;2.358;2024-01-07T04:07:52;0.63;;;0.63;;
84113;SDS011;74483;48.846;2.358;2024-01-07T04:10:17;0.82;;;0.60;;
84113;SDS011;74483;48.846;2.358;2024-01-07T04:12:44;0.70;;;0.40;;
84113;SDS011;74483;48.846;2.358;2024-01-07T04:15:10;0.80;;;0.60;;
84113;SDS011;74483;48.846;2.358;2024-01-07T04:17:36;0.60;;;0.50;;
84113;SDS011;74483;48.846;2.358;2024-01-07T04:20:02;0.50;;;0.47;;
84113;SDS011;74483;48.846;2.358;2024-01-07T04:22:28;0.60;;;0.50;;
84113;SDS011;74483;48.846;2.358;2024-01-07T04:24:54;0.98;;;0.50;;
84113;SDS011;74483;48.846;2.358;2024-01-07T04:27:19;0.75;;;0.60;;
84113;SDS011;74483;48.846;2.358;2024-01-07T04:29:45;0.73;;;0.60;;
84113;SDS011;74483;48.846;2.358;2024-01-07T04:32:10;1.13;;;0.60;;
84113;SDS011;74483;48.846;2.358;2024-01-07T04:34:36;0.88;;;0.60;;
84113;SDS011;74483;48.846;2.358;2024-01-07T04:37:02;0.73;;;0.50;;
84113;SDS011;74483;48.846;2.358;2024-01-07T04:39:28;0.60;;;0.60;;
84113;SDS011;74483;48.846;2.358;2024-01-07T04:41:53;0.52;;;0.50;;
84113;SDS011;74483;48.846;2.358;2024-01-07T04:44:19;1.27;;;0.70;;
84113;SDS011;74483;48.846;2.358;2024-01-07T04:46:44;0.63;;;0.50;;
84113;SDS011;74483;48.846;2.358;2024-01-07T04:49:10;0.93;;;0.57;;
84113;SDS011;74483;48.846;2.358;2024-01-07T04:51:35;0.68;;;0.60;;
84113;SDS011;74483;48.846;2.358;2024-01-07T04:54:01;0.60;;;0.60;;
84113;SDS011;74483;48.846;2.358;2024-01-07T04:56:27;0.65;;;0.50;;
84113;SDS011;74483;48.846;2.358;2024-01-07T04:58:52;0.57;;;0.50;;
84113;SDS011;74483;48.846;2.358;2024-01-07T05:01:18;1.85;;;0.65;;
84113;SDS011;74483;48.846;2.358;2024-01-07T05:03:44;0.50;;;0.50;;
84113;SDS011;74483;48.846;2.358;2024-01-07T05:06:09;1.13;;;0.50;;
84113;SDS011;74483;48.846;2.358;2024-01-07T05:08:36;1.75;;;0.70;;
84113;SDS011;74483;48.846;2.358;2024-01-07T05:11:02;0.77;;;0.50;;
84113;SDS011;74483;48.846;2.358;2024-01-07T05:13:28;0.50;;;0.40;;
84113;SDS011;74483;48.846;2.358;2024-01-07T05:15:54;0.60;;;0.55;;
84113;SDS011;74483;48.846;2.358;2024-01-07T05:18:21;0.40;;;0.40;;
84113;SDS011;74483;48.846;2.358;2024-01-07T05:20:50;0.60;;;0.60;;
84113;SDS011;74483;48.846;2.358;2024-01-07T05:23:16;0.50;;;0.50;;
84113;SDS011;74483;48.846;2.358;2024-01-07T05:25:42;1.05;;;0.60;;
84113;SDS011;74483;48.846;2.358;2024-01-07T05:28:09;0.40;;;0.40;;
84113;SDS011;74483;48.846;2.358;2024-01-07T05:30:35;0.50;;;0.50;;
84113;SDS011;74483;48.846;2.358;2024-01-07T05:33:00;0.50;;;0.40;;
84113;SDS011;74483;48.846;2.358;2024-01-07T05:35:26;0.52;;;0.52;;
84113;SDS011;74483;48.846;2.358;2024-01-07T05:37:52;0.50;;;0.50;;
84113;SDS011;74483;48.846;2.358;2024-01-07T05:40:18;0.80;;;0.47;;
84113;SDS011;74483;48.846;2.358;2024-01-07T05:42:43;0.70;;;0.40;;
84113;SDS011;74483;48.846;2.358;2024-01-07T05:45:09;1.20;;;0.60;;
84113;SDS011;74483;48.846;2.358;2024-01-07T05:47:35;0.68;;;0.60;;
84113;SDS011;74483;48.846;2.358;2024-01-07T05:50:00;1.70;;;0.70;;
84113;SDS011;74483;48.846;2.358;2024-01-07T05:52:27;0.68;;;0.50;;
84113;SDS011;74483;48.846;2.358;2024-01-07T05:54:52;0.85;;;0.70;;
84113;SDS011;74483;48.846;2.358;2024-01-07T05:57:18;0.88;;;0.50;;
84113;SDS011;74483;48.846;2.358;2024-01-07T05:59:44;1.15;;;0.60;;
84113;SDS011;74483;48.846;2.358;2024-01-07T06:02:10;1.20;;;0.45;;
84113;SDS011;74483;48.846;2.358;2024-01-07T06:04:37;0.57;;;0.50;;
84113;SDS011;74483;48.846;2.358;2024-01-07T06:07:03;0.68;;;0.50;;
84113;SDS011;74483;48.846;2.358;2024-01-07T06:09:29;0.95;;;0.65;;
84113;SDS011;74483;48.846;2.358;2024-01-07T06:11:54;0.90;;;0.50;;
84113;SDS011;74483;48.846;2.358;2024-01-07T06:14:21;0.55;;;0.55;;
84113;SDS011;74483;48.846;2.358;2024-01-07T06:16:47;0.60;;;0.47;;
84113;SDS011;74483;48.846;2.358;2024-01-07T06:19:13;0.50;;;0.50;;
84113;SDS011;74483;48.846;2.358;2024-01-07T06:21:39;0.82;;;0.60;;
84113;SDS011;74483;48.846;2.358;2024-01-07T06:24:07;0.50;;;0.50;;
84113;SDS011;74483;48.846;2.358;2024-01-07T06:26:33;1.10;;;0.50;;
84113;SDS011;74483;48.846;2.358;2024-01-07T06:28:58;1.05;;;0.50;;
84113;SDS011;74483;48.846;2.358;2024-01-07T06:31:24;0.47;;;0.47;;
84113;SDS011;74483;48.846;2.358;2024-01-07T06:33:50;1.35;;;0.63;;
84113;SDS011;74483;48.846;2.358;2024-01-07T06:36:16;0.70;;;0.55;;
84113;SDS011;74483;48.846;2.358;2024-01-07T06:38:42;1.48;;;0.60;;
84113;SDS011;74483;48.846;2.358;2024-01-07T06:41:09;0.90;;;0.60;;
84113;SDS011;74483;48.846;2.358;2024-01-07T06:43:35;0.60;;;0.60;;
84113;SDS011;74483;48.846;2.358;2024-01-07T06:46:01;0.82;;;0.60;;
84113;SDS011;74483;48.846;2.358;2024-01-07T06:48:27;0.50;;;0.50;;
84113;SDS011;74483;48.846;2.358;2024-01-07T06:50:52;0.40;;;0.40;;
84113;SDS011;74483;48.846;2.358;2024-01-07T06:53:18;0.70;;;0.50;;
84113;SDS011;74483;48.846;2.358;2024-01-07T06:55:43;1.13;;;0.50;;
84113;SDS011;74483;48.846;2.358;2024-01-07T06:58:09;0.60;;;0.50;;
84113;SDS011;74483;48.846;2.358;2024-01-07T07:00:35;0.63;;;0.55;;
84113;SDS011;74483;48.846;2.358;2024-01-07T07:03:00;0.68;;;0.43;;
84113;SDS011;74483;48.846;2.358;2024-01-07T07:05:26;0.88;;;0.52;;
84113;SDS011;74483;48.846;2.358;2024-01-07T07:07:51;0.50;;;0.40;;
84113;SDS011;74483;48.846;2.358;2024-01-07T07:10:17;0.70;;;0.50;;
84113;SDS011;74483;48.846;2.358;2024-01-07T07:12:43;1.23;;;0.60;;
84113;SDS011;74483;48.846;2.358;2024-01-07T07:15:08;0.40;;;0.40;;
84113;SDS011;74483;48.846;2.358;2024-01-07T07:17:35;0.52;;;0.52;;
84113;SDS011;74483;48.846;2.358;2024-01-07T07:20:04;0.40;;;0.40;;
84113;SDS011;74483;48.846;2.358;2024-01-07T07:22:31;0.65;;;0.40;;
84113;SDS011;74483;48.846;2.358;2024-01-07T07:24:56;0.80;;;0.60;;
84113;SDS011;74483;48.846;2.358;2024-01-07T07:27:22;0.77;;;0.50;;
84113;SDS011;74483;48.846;2.358;2024-01-07T07:29:48;0.50;;;0.50;;
84113;SDS011;74483;48.846;2.358;2024-01-07T07:32:13;0.40;;;0.40;;
84113;SDS011;74483;48.846;2.358;2024-01-07T07:34:39;1.05;;;0.57;;
84113;SDS011;74483;48.846;2.358;2024-01-07T07:37:04;0.98;;;0.50;;
84113;SDS011;74483;48.846;2.358;2024-01-07T07:39:30;0.68;;;0.55;;
84113;SDS011;74483;48.846;2.358;2024-01-07T07:41:55;0.55;;;0.55;;
84113;SDS011;74483;48.846;2.358;2024-01-07T07:44:21;0.77;;;0.50;;
84113;SDS011;74483;48.846;2.358;2024-01-07T07:46:47;0.40;;;0.40;;
84113;SDS011;74483;48.846;2.358;2024-01-07T07:49:12;1.17;;;0.60;;
84113;SDS011;74483;48.846;2.358;2024-01-07T07:51:38;0.50;;;0.50;;
84113;SDS011;74483;48.846;2.358;2024-01-07T07:54:04;0.47;;;0.40;;
84113;SDS011;74483;48.846;2.358;2024-01-07T07:56:30;0.70;;;0.50;;
84113;SDS011;74483;48.846;2.358;2024-01-07T07:58:55;0.60;;;0.60;;
84113;SDS011;74483;48.846;2.358;2024-01-07T08:01:21;0.60;;;0.50;;
84113;SDS011;74483;48.846;2.358;2024-01-07T08:03:47;0.60;;;0.60;;
84113;SDS011;74483;48.846;2.358;2024-01-07T08:06:12;0.50;;;0.50;;
84113;SDS011;74483;48.846;2.358;2024-01-07T08:08:38;0.77;;;0.60;;
84113;SDS011;74483;48.846;2.358;2024-01-07T08:11:04;0.63;;;0.50;;
84113;SDS011;74483;48.846;2.358;2024-01-07T08:13:34;0.43;;;0.40;;
84113;SDS011;74483;48.846;2.358;2024-01-07T08:16:01;0.65;;;0.50;;
84113;SDS011;74483;48.846;2.358;2024-01-07T08:18:27;0.60;;;0.60;;
84113;SDS011;74483;48.846;2.358;2024-01-07T08:20:53;0.52;;;0.52;;
84113;SDS011;74483;48.846;2.358;2024-01-07T08:23:19;0.50;;;0.50;;
84113;SDS011;74483;48.846;2.358;2024-01-07T08:25:44;1.23;;;0.60;;
84113;SDS011;74483;48.846;2.358;2024-01-07T08:28:10;0.70;;;0.70;;
84113;SDS011;74483;48.846;2.358;2024-01-07T08:30:36;0.63;;;0.50;;
84113;SDS011;74483;48.846;2.358;2024-01-07T08:33:01;0.65;;;0.65;;
84113;SDS011;74483;48.846;2.358;2024-01-07T08:35:27;0.70;;;0.70;;
84113;SDS011;74483;48.846;2.358;2024-01-07T08:37:53;0.52;;;0.50;;
84113;SDS011;74483;48.846;2.358;2024-01-07T08:40:18;0.50;;;0.50;;
84113;SDS011;74483;48.846;2.358;2024-01-07T08:42:44;0.50;;;0.50;;
84113;SDS011;74483;48.846;2.358;2024-01-07T08:45:10;0.60;;;0.60;;
84113;SDS011;74483;48.846;2.358;2024-01-07T08:47:36;0.60;;;0.50;;
84113;SDS011;74483;48.846;2.358;2024-01-07T08:50:02;0.90;;;0.70;;
84113;SDS011;74483;48.846;2.358;2024-01-07T08:52:28;0.60;;;0.60;;
84113;SDS011;74483;48.846;2.358;2024-01-07T08:54:54;0.70;;;0.70;;
84113;SDS011;74483;48.846;2.358;2024-01-07T08:57:20;0.68;;;0.60;;
84113;SDS011;74483;48.846;2.358;2024-01-07T08:59:45;0.65;;;0.60;;
84113;SDS011;74483;48.846;2.358;2024-01-07T09:02:11;0.73;;;0.70;;
84113;SDS011;74483;48.846;2.358;2024-01-07T09:04:37;0.60;;;0.60;;
84113;SDS011;74483;48.846;2.358;2024-01-07T09:07:03;0.75;;;0.70;;
84113;SDS011;74483;48.846;2.358;2024-01-07T09:09:28;0.65;;;0.65;;
84113;SDS011;74483;48.846;2.358;2024-01-07T09:11:54;0.70;;;0.70;;
84113;SDS011;74483;48.846;2.358;2024-01-07T09:14:21;1.25;;;0.90;;
84113;SDS011;74483;48.846;2.358;2024-01-07T09:16:47;1.80;;;0.70;;
84113;SDS011;74483;48.846;2.358;2024-01-07T09:19:13;0.70;;;0.70;;
84113;SDS011;74483;48.846;2.358;2024-01-07T09:21:38;0.60;;;0.60;;
84113;SDS011;74483;48.846;2.358;2024-01-07T09:24:04;1.13;;;0.80;;
84113;SDS011;74483;48.846;2.358;2024-01-07T09:26:30;1.05;;;0.90;;
84113;SDS011;74483;48.846;2.358;2024-01-07T09:28:56;0.60;;;0.60;;
84113;SDS011;74483;48.846;2.358;2024-01-07T09:31:22;1.17;;;0.85;;
84113;SDS011;74483;48.846;2.358;2024-01-07T09:33:47;0.95;;;0.90;;
84113;SDS011;74483;48.846;2.358;2024-01-07T09:36:13;1.02;;;0.93;;
84113;SDS011;74483;48.846;2.358;2024-01-07T09:38:39;0.80;;;0.75;;
84113;SDS011;74483;48.846;2.358;2024-01-07T09:41:05;0.95;;;0.88;;
84113;SDS011;74483;48.846;2.358;2024-01-07T09:43:30;1.10;;;1.00;;
84113;SDS011;74483;48.846;2.358;2024-01-07T09:45:56;1.15;;;0.95;;
84113;SDS011;74483;48.846;2.358;2024-01-07T09:48:23;1.45;;;0.90;;
84113;SDS011;74483;48.846;2.358;2024-01-07T09:50:49;1.27;;;0.98;;
84113;SDS011;74483;48.846;2.358;2024-01-07T09:53:17;1.00;;;0.93;;
84113;SDS011;74483;48.846;2.358;2024-01-07T09:58:37;1.20;;;0.90;;
84113;SDS011;74483;48.846;2.358;2024-01-07T10:01:03;1.00;;;0.90;;
84113;SDS011;74483;48.846;2.358;2024-01-07T10:03:30;1.00;;;0.80;;
84113;SDS011;74483;48.846;2.358;2024-01-07T10:05:55;1.35;;;1.10;;
84113;SDS011;74483;48.846;2.358;2024-01-07T10:08:21;1.10;;;1.00;;
84113;SDS011;74483;48.846;2.358;2024-01-07T10:10:48;1.15;;;1.05;;
84113;SDS011;74483;48.846;2.358;2024-01-07T10:13:14;1.13;;;1.02;;
84113;SDS011;74483;48.846;2.358;2024-01-07T10:15:39;1.25;;;1.10;;
84113;SDS011;74483;48.846;2.358;2024-01-07T10:18:06;1.73;;;1.00;;
84113;SDS011;74483;48.846;2.358;2024-01-07T10:20:33;1.20;;;1.08;;
84113;SDS011;74483;48.846;2.358;2024-01-07T10:22:59;1.40;;;1.00;;
84113;SDS011;74483;48.846;2.358;2024-01-07T10:25:25;1.33;;;1.20;;
84113;SDS011;74483;48.846;2.358;2024-01-07T10:27:51;1.13;;;1.02;;
84113;SDS011;74483;48.846;2.358;2024-01-07T10:30:17;1.38;;;1.10;;
84113;SDS011;74483;48.846;2.358;2024-01-07T10:32:42;1.25;;;1.08;;
84113;SDS011;74483;48.846;2.358;2024-01-07T10:35:10;1.73;;;1.23;;
84113;SDS011;74483;48.846;2.358;2024-01-07T10:37:39;1.85;;;1.02;;
84113;SDS011;74483;48.846;2.358;2024-01-07T10:40:04;1.52;;;1.00;;
84113;SDS011;74483;48.846;2.358;2024-01-07T10:42:32;1.20;;;1.10;;
84113;SDS011;74483;48.846;2.358;2024-01-07T10:44:59;1.20;;;1.08;;
84113;SDS011;74483;48.846;2.358;2024-01-07T10:47:32;1.20;;;1.10;;
84113;SDS011;74483;48.846;2.358;2024-01-07T10:49:59;1.33;;;1.00;;
84113;SDS011;74483;48.846;2.358;2024-01-07T10:52:26;1.40;;;1.10;;
84113;SDS011;74483;48.846;2.358;2024-01-07T10:54:53;1.23;;;1.10;;
84113;SDS011;74483;48.846;2.358;2024-01-07T11:00:00;1.50;;;1.20;;
84113;SDS011;74483;48.846;2.358;2024-01-07T11:02:38;1.70;;;1.30;;
84113;SDS011;74483;48.846;2.358;2024-01-07T11:05:14;1.60;;;1.00;;
84113;SDS011;74483;48.846;2.358;2024-01-07T11:07:43;1.42;;;1.23;;
84113;SDS011;74483;48.846;2.358;2024-01-07T11:10:16;1.10;;;1.00;;
84113;SDS011;74483;48.846;2.358;2024-01-07T11:12:54;1.25;;;1.15;;
84113;SDS011;74483;48.846;2.358;2024-01-07T11:15:53;2.08;;;1.38;;
84113;SDS011;74483;48.846;2.358;2024-01-07T11:18:17;0.93;;;0.93;;
84113;SDS011;74483;48.846;2.358;2024-01-07T11:20:43;1.23;;;1.13;;
84113;SDS011;74483;48.846;2.358;2024-01-07T11:23:43;1.30;;;1.20;;
84113;SDS011;74483;48.846;2.358;2024-01-07T11:26:07;1.30;;;1.20;;
84113;SDS011;74483;48.846;2.358;2024-01-07T11:28:43;1.30;;;1.20;;
84113;SDS011;74483;48.846;2.358;2024-01-07T11:31:08;1.27;;;1.17;;
84113;SDS011;74483;48.846;2.358;2024-01-07T11:33:36;1.55;;;1.25;;
84113;SDS011;74483;48.846;2.358;2024-01-07T11:36:02;1.50;;;1.23;;
84113;SDS011;74483;48.846;2.358;2024-01-07T11:38:29;1.20;;;1.10;;
84113;SDS011;74483;48.846;2.358;2024-01-07T11:40:56;1.40;;;1.30;;
84113;SDS011;74483;48.846;2.358;2024-01-07T11:43:22;2.38;;;1.50;;
84113;SDS011;74483;48.846;2.358;2024-01-07T11:45:51;1.50;;;1.40;;
84113;SDS011;74483;48.846;2.358;2024-01-07T11:48:19;1.65;;;1.40;;
84113;SDS011;74483;48.846;2.358;2024-01-07T11:50:45;1.38;;;1.27;;
84113;SDS011;74483;48.846;2.358;2024-01-07T11:53:11;1.92;;;1.70;;
84113;SDS011;74483;48.846;2.358;2024-01-07T11:55:37;1.40;;;1.30;;
84113;SDS011;74483;48.846;2.358;2024-01-07T11:58:03;1.85;;;1.50;;
84113;SDS011;74483;48.846;2.358;2024-01-07T12:00:32;1.40;;;1.30;;
84113;SDS011;74483;48.846;2.358;2024-01-07T12:02:59;1.60;;;1.40;;
84113;SDS011;74483;48.846;2.358;2024-01-07T12:05:26;1.80;;;1.70;;
84113;SDS011;74483;48.846;2.358;2024-01-07T12:07:52;1.98;;;1.70;;
84113;SDS011;74483;48.846;2.358;2024-01-07T12:10:18;1.73;;;1.60;;
84113;SDS011;74483;48.846;2.358;2024-01-07T12:12:44;1.75;;;1.60;;
84113;SDS011;74483;48.846;2.358;2024-01-07T12:15:10;1.92;;;1.75;;
84113;SDS011;74483;48.846;2.358;2024-01-07T12:17:40;1.77;;;1.63;;
84113;SDS011;74483;48.846;2.358;2024-01-07T12:20:07;1.70;;;1.60;;
84113;SDS011;74483;48.846;2.358;2024-01-07T12:22:38;1.95;;;1.50;;
84113;SDS011;74483;48.846;2.358;2024-01-07T12:25:04;1.85;;;1.70;;
84113;SDS011;74483;48.846;2.358;2024-01-07T12:27:31;2.00;;;1.77;;
84113;SDS011;74483;48.846;2.358;2024-01-07T12:29:58;2.13;;;1.90;;
84113;SDS011;74483;48.846;2.358;2024-01-07T12:32:27;1.80;;;1.65;;
84113;SDS011;74483;48.846;2.358;2024-01-07T12:35:01;1.85;;;1.75;;
84113;SDS011;74483;48.846;2.358;2024-01-07T12:37:27;1.95;;;1.75;;
84113;SDS011;74483;48.846;2.358;2024-01-07T12:39:53;2.00;;;1.80;;
84113;SDS011;74483;48.846;2.358;2024-01-07T12:42:19;2.58;;;1.98;;
84113;SDS011;74483;48.846;2.358;2024-01-07T12:44:47;1.85;;;1.73;;
84113;SDS011;74483;48.846;2.358;2024-01-07T12:47:13;2.33;;;2.00;;
84113;SDS011;74483;48.846;2.358;2024-01-07T12:49:39;2.25;;;2.05;;
84113;SDS011;74483;48.846;2.358;2024-01-07T12:52:05;2.10;;;1.90;;
84113;SDS011;74483;48.846;2.358;2024-01-07T12:54:30;2.20;;;1.98;;
84113;SDS011;74483;48.846;2.358;2024-01-07T12:56:56;2.22;;;1.92;;
84113;SDS011;74483;48.846;2.358;2024-01-07T12:59:22;2.25;;;2.05;;
84113;SDS011;74483;48.846;2.358;2024-01-07T13:01:47;2.30;;;2.10;;
84113;SDS011;74483;48.846;2.358;2024-01-07T13:04:15;2.20;;;2.00;;
84113;SDS011;74483;48.846;2.358;2024-01-07T13:06:42;2.88;;;2.10;;
84113;SDS011;74483;48.846;2.358;2024-01-07T13:09:07;2.28;;;2.05;;
84113;SDS011;74483;48.846;2.358;2024-01-07T13:11:34;2.28;;;1.95;;
84113;SDS011;74483;48.846;2.358;2024-01-07T13:14:00;2.03;;;1.83;;
84113;SDS011;74483;48.846;2.358;2024-01-07T13:16:26;2.20;;;2.00;;
84113;SDS011;74483;48.846;2.358;2024-01-07T13:18:53;2.58;;;2.10;;
84113;SDS011;74483;48.846;2.358;2024-01-07T13:21:19;2.67;;;2.40;;
84113;SDS011;74483;48.846;2.358;2024-01-07T13:23:45;2.70;;;2.30;;
84113;SDS011;74483;48.846;2.358;2024-01-07T13:26:12;2.35;;;2.15;;
84113;SDS011;74483;48.846;2.358;2024-01-07T13:28:38;2.42;;;2.00;;
84113;SDS011;74483;48.846;2.358;2024-01-07T13:31:04;2.88;;;2.50;;
84113;SDS011;74483;48.846;2.358;2024-01-07T13:33:31;2.03;;;1.90;;
84113;SDS011;74483;48.846;2.358;2024-01-07T13:35:57;2.30;;;2.10;;
84113;SDS011;74483;48.846;2.358;2024-01-07T13:38:23;2.15;;;1.95;;
84113;SDS011;74483;48.846;2.358;2024-01-07T13:40:48;2.40;;;2.20;;
84113;SDS011;74483;48.846;2.358;2024-01-07T13:43:14;2.75;;;2.20;;
84113;SDS011;74483;48.846;2.358;2024-01-07T13:45:40;2.70;;;2.50;;
84113;SDS011;74483;48.846;2.358;2024-01-07T13:48:06;3.00;;;2.80;;
84113;SDS011;74483;48.846;2.358;2024-01-07T13:50:32;3.05;;;2.70;;
84113;SDS011;74483;48.846;2.358;2024-01-07T13:52:58;3.40;;;3.10;;
84113;SDS011;74483;48.846;2.358;2024-01-07T13:55:24;3.17;;;2.88;;
84113;SDS011;74483;48.846;2.358;2024-01-07T13:57:49;3.95;;;3.55;;
84113;SDS011;74483;48.846;2.358;2024-01-07T14:00:15;3.75;;;3.30;;
84113;SDS011;74483;48.846;2.358;2024-01-07T14:02:43;3.42;;;3.13;;
84113;SDS011;74483;48.846;2.358;2024-01-07T14:05:10;3.35;;;3.05;;
84113;SDS011;74483;48.846;2.358;2024-01-07T14:07:37;3.70;;;3.40;;
84113;SDS011;74483;48.846;2.358;2024-01-07T14:10:03;3.40;;;3.10;;
84113;SDS011;74483;48.846;2.358;2024-01-07T14:12:30;3.20;;;2.88;;
84113;SDS011;74483;48.846;2.358;2024-01-07T14:14:56;3.30;;;2.90;;
84113;SDS011;74483;48.846;2.358;2024-01-07T14:17:22;3.22;;;2.97;;
84113;SDS011;74483;48.846;2.358;2024-01-07T14:19:47;2.75;;;2.55;;
84113;SDS011;74483;48.846;2.358;2024-01-07T14:22:13;2.78;;;2.53;;
84113;SDS011;74483;48.846;2.358;2024-01-07T14:24:40;2.75;;;2.55;;
84113;SDS011;74483;48.846;2.358;2024-01-07T14:27:05;3.38;;;2.80;;
84113;SDS011;74483;48.846;2.358;2024-01-07T14:29:31;2.97;;;2.78;;
84113;SDS011;74483;48.846;2.358;2024-01-07T14:31:56;3.20;;;2.90;;
84113;SDS011;74483;48.846;2.358;2024-01-07T14:34:22;3.08;;;2.50;;
84113;SDS011;74483;48.846;2.358;2024-01-07T14:36:48;2.85;;;2.58;;
84113;SDS011;74483;48.846;2.358;2024-01-07T14:39:14;2.70;;;2.50;;
84113;SDS011;74483;48.846;2.358;2024-01-07T14:41:39;2.83;;;2.60;;
84113;SDS011;74483;48.846;2.358;2024-01-07T14:44:05;2.60;;;2.25;;
84113;SDS011;74483;48.846;2.358;2024-01-07T14:46:31;2.55;;;2.33;;
84113;SDS011;74483;48.846;2.358;2024-01-07T14:48:56;2.58;;;2.38;;